Time;durP1;ratioP1;P1;durP2;ratioP2;P2;SDS_P1;SDS_P2;PMS_P1;PMS_P2;Temp;Humidity;BMP_temperature;BMP_pressure;BME280_temperature;BME280_humidity;BME280_pressure;Samples;Min_cycle;Max_cycle;Signal;HPM_P1;HPM_P2
2022/07/14 00:01:06;;;;;;;0.90;0.90;;;;;;;;;;5041958;28;20205;-81
2022/07/14 00:03:35;;;;;;;1.88;1.08;;;;;;;;;;5036816;28;20206;-83
2022/07/14 00:06:03;;;;;;;2.08;1.00;;;;;;;;;;5033188;28;20222;-83
2022/07/14 00:08:30;;;;;;;2.42;0.90;;;;;;;;;;5044300;28;20206;-83
2022/07/14 00:10:57;;;;;;;1.50;1.00;;;;;;;;;;5046196;28;20714;-83
2022/07/14 00:13:24;;;;;;;1.23;1.10;;;;;;;;;;5052436;28;20194;-82
2022/07/14 00:15:52;;;;;;;1.48;1.30;;;;;;;;;;5043982;28;20768;-83
2022/07/14 00:18:19;;;;;;;1.63;1.10;;;;;;;;;;5047288;28;20226;-82
2022/07/14 00:20:46;;;;;;;3.20;1.20;;;;;;;;;;5038522;28;20233;-83
2022/07/14 00:23:14;;;;;;;2.70;1.10;;;;;;;;;;5038094;28;20226;-82
2022/07/14 00:25:42;;;;;;;2.15;1.23;;;;;;;;;;5017223;28;20300;-83
2022/07/14 00:28:09;;;;;;;1.67;1.20;;;;;;;;;;5038719;28;20201;-84
2022/07/14 00:30:39;;;;;;;3.83;1.20;;;;;;;;;;5049074;28;20260;-82
2022/07/14 00:33:06;;;;;;;1.85;1.23;;;;;;;;;;5041941;28;20291;-85
2022/07/14 00:35:34;;;;;;;1.10;1.00;;;;;;;;;;5050732;28;20214;-84
2022/07/14 00:38:05;;;;;;;1.90;1.33;;;;;;;;;;5019305;28;20205;-83
2022/07/14 00:40:32;;;;;;;1.10;1.00;;;;;;;;;;5043248;28;20205;-83
2022/07/14 00:43:00;;;;;;;1.10;1.00;;;;;;;;;;5034694;28;20253;-84
2022/07/14 00:45:27;;;;;;;2.38;0.88;;;;;;;;;;5044468;28;20277;-81
2022/07/14 00:47:55;;;;;;;1.02;0.90;;;;;;;;;;5041598;28;20293;-85
2022/07/14 00:50:22;;;;;;;1.17;1.00;;;;;;;;;;5053295;28;20193;-86
2022/07/14 00:52:50;;;;;;;2.25;0.80;;;;;;;;;;5055433;28;20190;-81
2022/07/14 00:55:18;;;;;;;1.75;1.13;;;;;;;;;;5035781;28;20246;-82
2022/07/14 00:57:46;;;;;;;1.38;1.25;;;;;;;;;;5035267;28;20294;-84
2022/07/14 01:00:15;;;;;;;1.23;0.98;;;;;;;;;;5024433;28;20241;-82
2022/07/14 01:02:43;;;;;;;1.23;1.10;;;;;;;;;;5033528;28;20202;-84
2022/07/14 01:05:10;;;;;;;2.47;1.00;;;;;;;;;;5041907;28;20227;-82
2022/07/14 01:07:38;;;;;;;1.83;1.00;;;;;;;;;;5038216;28;20298;-84
2022/07/14 01:10:06;;;;;;;3.15;0.95;;;;;;;;;;5015471;28;20251;-86
2022/07/14 01:12:34;;;;;;;2.08;0.95;;;;;;;;;;5023835;28;20206;-86
2022/07/14 01:15:01;;;;;;;0.80;0.80;;;;;;;;;;5042927;28;20234;-85
2022/07/14 01:17:28;;;;;;;3.65;0.90;;;;;;;;;;5018764;28;20215;-83
2022/07/14 01:19:56;;;;;;;0.93;0.90;;;;;;;;;;5036629;28;20251;-81
2022/07/14 01:22:26;;;;;;;0.70;0.70;;;;;;;;;;5032827;28;20232;-83
2022/07/14 01:24:53;;;;;;;0.93;0.75;;;;;;;;;;5041913;28;20219;-84
2022/07/14 01:27:20;;;;;;;0.70;0.70;;;;;;;;;;5043039;28;20198;-85
2022/07/14 01:29:47;;;;;;;1.70;0.80;;;;;;;;;;5037900;28;20206;-84
2022/07/14 01:32:15;;;;;;;2.00;1.00;;;;;;;;;;5043687;28;20418;-81
2022/07/14 01:34:42;;;;;;;2.08;0.90;;;;;;;;;;5053864;28;20268;-85
2022/07/14 01:37:09;;;;;;;0.75;0.75;;;;;;;;;;5049933;28;20197;-83
2022/07/14 01:39:37;;;;;;;0.93;0.93;;;;;;;;;;5027427;28;20775;-83
2022/07/14 01:42:04;;;;;;;0.88;0.80;;;;;;;;;;5049577;28;20289;-82
2022/07/14 01:44:32;;;;;;;0.70;0.70;;;;;;;;;;5038515;28;20717;-82
2022/07/14 01:46:59;;;;;;;3.72;0.88;;;;;;;;;;5046318;28;20197;-83
2022/07/14 01:49:28;;;;;;;0.90;0.90;;;;;;;;;;5041229;28;20677;-84
2022/07/14 01:51:55;;;;;;;1.10;0.50;;;;;;;;;;5045490;28;20259;-83
2022/07/14 01:54:24;;;;;;;0.95;0.80;;;;;;;;;;5043915;28;20202;-84
2022/07/14 01:56:53;;;;;;;1.27;0.70;;;;;;;;;;5027388;28;20221;-84
2022/07/14 01:59:20;;;;;;;0.65;0.65;;;;;;;;;;5027894;28;20771;-82
2022/07/14 02:01:47;;;;;;;0.70;0.70;;;;;;;;;;5047644;28;20709;-84
2022/07/14 02:04:16;;;;;;;0.90;0.80;;;;;;;;;;5055595;28;20263;-86
2022/07/14 02:06:43;;;;;;;1.17;0.80;;;;;;;;;;5055362;28;20230;-83
2022/07/14 02:09:10;;;;;;;1.55;0.70;;;;;;;;;;5037724;28;20202;-83
2022/07/14 02:14:24;;;;;;;2.60;1.00;;;;;;;;;;5054505;28;20201;-81
2022/07/14 02:16:52;;;;;;;2.25;1.00;;;;;;;;;;5039045;28;20231;-82
2022/07/14 02:19:24;;;;;;;0.80;0.80;;;;;;;;;;5049430;28;20226;-82
2022/07/14 02:21:52;;;;;;;2.03;1.10;;;;;;;;;;5029750;28;20288;-84
2022/07/14 02:24:20;;;;;;;1.33;1.10;;;;;;;;;;5053013;28;20202;-85
2022/07/14 02:26:52;;;;;;;1.33;1.00;;;;;;;;;;5054430;28;20232;-84
2022/07/14 02:29:20;;;;;;;1.25;1.15;;;;;;;;;;5049573;28;20788;-83
2022/07/14 02:31:48;;;;;;;5.93;1.00;;;;;;;;;;5033330;28;20211;-83
2022/07/14 02:34:16;;;;;;;1.23;1.00;;;;;;;;;;5038001;28;20283;-83
2022/07/14 02:36:44;;;;;;;1.80;0.90;;;;;;;;;;5046188;28;20231;-85
2022/07/14 02:39:12;;;;;;;1.50;1.00;;;;;;;;;;5051779;28;20222;-80
2022/07/14 02:41:40;;;;;;;1.50;1.40;;;;;;;;;;5053688;28;20575;-83
2022/07/14 02:44:08;;;;;;;1.30;1.20;;;;;;;;;;5055657;28;20198;-80
2022/07/14 02:46:36;;;;;;;1.40;1.30;;;;;;;;;;5053041;28;20290;-83
2022/07/14 02:49:04;;;;;;;1.15;1.00;;;;;;;;;;5057818;28;20210;-83
2022/07/14 02:51:31;;;;;;;1.10;1.10;;;;;;;;;;5035924;28;20206;-82
2022/07/14 02:53:59;;;;;;;1.95;1.00;;;;;;;;;;5039072;28;20236;-83
2022/07/14 02:56:26;;;;;;;0.90;0.73;;;;;;;;;;5046816;28;20233;-82
2022/07/14 02:58:54;;;;;;;0.95;0.93;;;;;;;;;;5035557;28;20291;-83
2022/07/14 03:01:21;;;;;;;2.40;1.25;;;;;;;;;;5049568;28;20602;-83
2022/07/14 03:03:49;;;;;;;2.28;1.10;;;;;;;;;;5051429;28;20210;-85
2022/07/14 03:06:17;;;;;;;1.38;0.98;;;;;;;;;;5057372;28;20217;-84
2022/07/14 03:08:45;;;;;;;1.27;1.08;;;;;;;;;;5051075;28;20202;-84
2022/07/14 03:11:12;;;;;;;1.05;0.90;;;;;;;;;;5050329;28;20202;-84
2022/07/14 03:13:40;;;;;;;0.90;0.90;;;;;;;;;;5045403;28;20207;-84
2022/07/14 03:16:09;;;;;;;3.45;1.10;;;;;;;;;;5049520;28;20222;-84
2022/07/14 03:18:39;;;;;;;1.33;1.00;;;;;;;;;;5025130;28;20206;-83
2022/07/14 03:21:08;;;;;;;1.40;1.00;;;;;;;;;;5041765;28;20256;-83
2022/07/14 03:23:36;;;;;;;2.38;1.20;;;;;;;;;;5045927;28;20680;-82
2022/07/14 03:26:04;;;;;;;3.53;1.00;;;;;;;;;;5049980;28;20220;-81
2022/07/14 03:28:32;;;;;;;2.28;1.10;;;;;;;;;;5047557;28;20209;-83
2022/07/14 03:31:00;;;;;;;1.20;1.10;;;;;;;;;;5046567;28;20206;-83
2022/07/14 03:33:27;;;;;;;2.67;1.08;;;;;;;;;;5040862;28;20210;-84
2022/07/14 03:35:55;;;;;;;0.90;0.90;;;;;;;;;;5046487;28;20710;-81
2022/07/14 03:38:22;;;;;;;1.00;1.00;;;;;;;;;;5039435;28;20296;-80
2022/07/14 03:41:03;;;;;;;2.80;1.02;;;;;;;;;;5038010;28;20226;-81
2022/07/14 03:43:32;;;;;;;2.05;1.90;;;;;;;;;;5038497;28;20205;-85
2022/07/14 03:45:59;;;;;;;2.90;1.63;;;;;;;;;;5047031;28;20221;-84
2022/07/14 03:48:27;;;;;;;2.28;1.60;;;;;;;;;;5027172;28;20244;-82
2022/07/14 03:50:54;;;;;;;1.20;1.10;;;;;;;;;;5048320;28;20202;-83
2022/07/14 03:53:21;;;;;;;1.85;1.25;;;;;;;;;;5050106;28;20632;-83
2022/07/14 03:55:49;;;;;;;2.92;1.00;;;;;;;;;;5038429;28;20238;-82
2022/07/14 03:58:19;;;;;;;1.13;1.02;;;;;;;;;;5044901;28;20214;-85
2022/07/14 04:00:47;;;;;;;3.60;2.92;;;;;;;;;;5043980;28;20706;-83
2022/07/14 04:03:15;;;;;;;4.97;2.67;;;;;;;;;;5036686;28;20598;-82
2022/07/14 04:05:43;;;;;;;2.67;2.03;;;;;;;;;;5030451;28;20226;-85
2022/07/14 04:08:11;;;;;;;3.55;2.80;;;;;;;;;;5049093;28;20256;-80
2022/07/14 04:10:38;;;;;;;3.85;2.45;;;;;;;;;;5032713;28;20210;-83
2022/07/14 04:13:05;;;;;;;2.13;1.73;;;;;;;;;;5046806;28;20210;-83
2022/07/14 04:15:33;;;;;;;5.30;2.17;;;;;;;;;;5053419;28;20218;-81
2022/07/14 04:18:00;;;;;;;4.07;1.98;;;;;;;;;;5043004;28;20273;-80
2022/07/14 04:20:27;;;;;;;2.30;2.10;;;;;;;;;;5040954;28;20599;-83
2022/07/14 04:22:55;;;;;;;2.33;1.60;;;;;;;;;;5036198;28;20252;-83
2022/07/14 04:25:22;;;;;;;7.70;1.77;;;;;;;;;;5040887;28;20218;-78
2022/07/14 04:28:10;;;;;;;2.55;1.50;;;;;;;;;;5047654;28;20249;-79
2022/07/14 04:30:40;;;;;;;2.75;1.27;;;;;;;;;;5022297;28;20213;-77
2022/07/14 04:33:12;;;;;;;5.72;1.70;;;;;;;;;;5020246;28;20221;-81
2022/07/14 04:35:39;;;;;;;3.78;1.70;;;;;;;;;;5037029;28;20237;-85
2022/07/14 04:38:06;;;;;;;5.78;1.80;;;;;;;;;;5030177;28;20225;-83
2022/07/14 04:40:34;;;;;;;10.82;2.15;;;;;;;;;;5029897;28;20726;-83
2022/07/14 04:43:01;;;;;;;5.53;1.75;;;;;;;;;;5031529;28;20197;-82
2022/07/14 04:45:29;;;;;;;6.75;1.60;;;;;;;;;;5040509;28;20275;-81
2022/07/14 04:47:56;;;;;;;5.18;1.73;;;;;;;;;;5039586;28;20245;-82
2022/07/14 04:53:09;;;;;;;10.38;1.83;;;;;;;;;;5046522;28;20266;-80
2022/07/14 04:55:37;;;;;;;5.00;1.45;;;;;;;;;;5036880;28;20252;-80
2022/07/14 04:58:04;;;;;;;5.13;1.35;;;;;;;;;;5036519;28;20206;-82
2022/07/14 05:00:32;;;;;;;3.60;1.30;;;;;;;;;;5022650;28;20237;-82
2022/07/14 05:03:05;;;;;;;5.68;1.35;;;;;;;;;;5038786;28;20207;-80
2022/07/14 05:05:32;;;;;;;2.75;1.02;;;;;;;;;;5027391;28;20828;-81
2022/07/14 05:08:00;;;;;;;2.72;1.35;;;;;;;;;;5037434;28;20279;-79
2022/07/14 05:10:27;;;;;;;1.35;1.20;;;;;;;;;;5032372;28;20934;-81
2022/07/14 05:12:55;;;;;;;6.25;1.80;;;;;;;;;;5038326;28;24150;-78
2022/07/14 05:15:22;;;;;;;6.88;3.50;;;;;;;;;;5042323;28;20237;-81
2022/07/14 05:17:49;;;;;;;6.95;3.03;;;;;;;;;;5027793;28;21274;-80
2022/07/14 05:20:17;;;;;;;9.77;5.68;;;;;;;;;;5043014;28;20233;-81
2022/07/14 05:22:44;;;;;;;12.05;6.95;;;;;;;;;;5050530;28;20356;-79
2022/07/14 05:25:12;;;;;;;13.73;6.43;;;;;;;;;;5042256;28;20689;-80
2022/07/14 05:27:41;;;;;;;5.22;3.30;;;;;;;;;;5018738;28;20213;-80
2022/07/14 05:30:09;;;;;;;3.13;2.20;;;;;;;;;;5027397;28;21538;-81
2022/07/14 05:32:36;;;;;;;4.57;1.60;;;;;;;;;;5048812;28;22227;-80
2022/07/14 05:35:04;;;;;;;2.65;1.30;;;;;;;;;;5040539;28;20311;-82
2022/07/14 05:37:35;;;;;;;3.03;1.00;;;;;;;;;;5019074;28;20260;-84
2022/07/14 05:40:08;;;;;;;1.63;0.88;;;;;;;;;;5043777;28;20238;-83
2022/07/14 05:42:35;;;;;;;2.45;1.08;;;;;;;;;;5047902;28;20214;-85
2022/07/14 05:45:03;;;;;;;1.10;1.00;;;;;;;;;;5044518;28;20249;-83
2022/07/14 05:47:41;;;;;;;1.27;1.08;;;;;;;;;;5043928;28;20687;-86
2022/07/14 05:50:28;;;;;;;5.80;1.00;;;;;;;;;;5043146;28;20270;-82
2022/07/14 05:52:55;;;;;;;2.45;0.90;;;;;;;;;;5036815;28;20249;-85
2022/07/14 05:55:36;;;;;;;2.95;1.00;;;;;;;;;;4968247;28;20228;-81
2022/07/14 05:58:04;;;;;;;4.97;0.90;;;;;;;;;;4983153;28;20200;-83
2022/07/14 06:00:31;;;;;;;0.95;0.75;;;;;;;;;;4960283;28;20342;-81
2022/07/14 06:02:58;;;;;;;3.63;1.00;;;;;;;;;;4971434;28;20204;-83
2022/07/14 06:05:26;;;;;;;2.50;0.77;;;;;;;;;;5042244;28;20240;-82
2022/07/14 06:07:53;;;;;;;1.88;1.05;;;;;;;;;;5040567;28;20732;-80
2022/07/14 06:10:21;;;;;;;2.55;0.90;;;;;;;;;;5039294;28;20329;-84
2022/07/14 06:12:58;;;;;;;0.70;0.70;;;;;;;;;;5025175;28;20275;-80
2022/07/14 06:15:27;;;;;;;2.75;1.10;;;;;;;;;;5041582;28;20653;-82
2022/07/14 06:17:56;;;;;;;1.63;0.85;;;;;;;;;;5041959;28;20284;-79
2022/07/14 06:20:26;;;;;;;1.40;0.80;;;;;;;;;;5036092;28;20230;-82
2022/07/14 06:22:54;;;;;;;2.10;0.88;;;;;;;;;;5055307;28;20224;-80
2022/07/14 06:25:22;;;;;;;1.88;0.93;;;;;;;;;;5036562;28;20225;-79
2022/07/14 06:27:49;;;;;;;1.50;0.82;;;;;;;;;;5052372;28;20089;-81
2022/07/14 06:30:16;;;;;;;2.47;0.90;;;;;;;;;;5039957;28;20695;-79
2022/07/14 06:32:55;;;;;;;1.00;0.90;;;;;;;;;;5043793;28;20656;-80
2022/07/14 06:35:26;;;;;;;1.52;0.90;;;;;;;;;;5041540;28;20218;-78
2022/07/14 06:38:17;;;;;;;0.80;0.80;;;;;;;;;;5048395;28;20252;-80
2022/07/14 06:40:44;;;;;;;3.30;0.90;;;;;;;;;;5040963;28;20226;-79
2022/07/14 06:43:14;;;;;;;2.95;0.98;;;;;;;;;;5043138;28;20194;-81
2022/07/14 06:45:45;;;;;;;3.03;0.80;;;;;;;;;;5027240;28;20222;-80
2022/07/14 06:48:15;;;;;;;1.10;0.85;;;;;;;;;;5047325;28;20202;-80
2022/07/14 06:50:48;;;;;;;1.50;0.95;;;;;;;;;;5024113;28;20210;-79
2022/07/14 06:53:33;;;;;;;2.05;1.00;;;;;;;;;;5019631;28;20206;-81
2022/07/14 06:56:10;;;;;;;1.65;0.90;;;;;;;;;;5024973;28;20275;-79
2022/07/14 06:58:38;;;;;;;0.80;0.80;;;;;;;;;;5038698;28;20218;-83
2022/07/14 07:01:07;;;;;;;1.48;0.90;;;;;;;;;;5033919;28;20316;-82
2022/07/14 07:03:36;;;;;;;1.73;0.90;;;;;;;;;;5018192;28;20217;-82
2022/07/14 07:08:50;;;;;;;2.88;0.70;;;;;;;;;;5029059;28;20210;-81
2022/07/14 07:11:19;;;;;;;1.02;0.73;;;;;;;;;;5037749;28;20207;-81
2022/07/14 07:13:46;;;;;;;1.52;0.80;;;;;;;;;;5032603;28;20214;-81
2022/07/14 07:16:14;;;;;;;2.17;0.90;;;;;;;;;;5028173;28;20230;-80
2022/07/14 07:18:43;;;;;;;0.70;0.70;;;;;;;;;;5041500;28;20292;-83
2022/07/14 07:21:20;;;;;;;2.17;0.80;;;;;;;;;;5038650;28;20235;-82
2022/07/14 07:23:54;;;;;;;1.55;0.80;;;;;;;;;;5029835;28;20198;-81
2022/07/14 07:26:24;;;;;;;3.42;0.98;;;;;;;;;;5015060;28;20225;-81
2022/07/14 07:28:53;;;;;;;1.20;0.63;;;;;;;;;;5037975;28;20674;-80
2022/07/14 07:31:33;;;;;;;0.93;0.73;;;;;;;;;;5024962;28;20209;-81
2022/07/14 07:34:08;;;;;;;1.20;0.70;;;;;;;;;;5030112;28;20284;-80
2022/07/14 07:36:36;;;;;;;1.73;1.10;;;;;;;;;;5038952;28;20277;-81
2022/07/14 07:39:19;;;;;;;1.50;0.77;;;;;;;;;;5036958;28;20582;-81
2022/07/14 07:41:46;;;;;;;2.00;0.82;;;;;;;;;;5022226;28;20229;-81
2022/07/14 07:44:13;;;;;;;0.98;0.80;;;;;;;;;;5028757;28;21625;-82
2022/07/14 07:46:43;;;;;;;1.30;0.80;;;;;;;;;;5034778;28;20219;-80
2022/07/14 07:49:11;;;;;;;1.23;1.02;;;;;;;;;;5025510;28;20236;-84
2022/07/14 07:51:38;;;;;;;2.15;0.90;;;;;;;;;;5024826;28;20225;-77
2022/07/14 07:54:06;;;;;;;1.00;0.90;;;;;;;;;;5038687;28;20842;-84
2022/07/14 07:56:39;;;;;;;1.00;0.90;;;;;;;;;;5035876;28;20654;-82
2022/07/14 07:59:23;;;;;;;3.20;0.98;;;;;;;;;;5015813;28;20244;-83
2022/07/14 08:01:50;;;;;;;0.80;0.80;;;;;;;;;;5023771;28;20678;-80
2022/07/14 08:04:18;;;;;;;1.23;1.00;;;;;;;;;;5034582;28;20206;-80
2022/07/14 08:06:46;;;;;;;1.42;0.70;;;;;;;;;;5031313;28;20620;-80
2022/07/14 08:09:14;;;;;;;1.15;0.82;;;;;;;;;;5043504;28;20277;-83
2022/07/14 08:11:47;;;;;;;1.77;0.88;;;;;;;;;;5041015;28;20301;-80
2022/07/14 08:17:01;;;;;;;1.75;0.80;;;;;;;;;;5034679;28;20207;-83
2022/07/14 08:19:32;;;;;;;2.47;0.98;;;;;;;;;;5053372;28;20225;-83
2022/07/14 08:21:59;;;;;;;1.67;1.10;;;;;;;;;;5025242;28;20225;-81
2022/07/14 08:24:28;;;;;;;0.95;0.93;;;;;;;;;;5052257;28;20207;-82
2022/07/14 08:27:03;;;;;;;1.05;0.95;;;;;;;;;;5043666;28;20221;-89
2022/07/14 08:29:34;;;;;;;1.02;1.02;;;;;;;;;;5041679;28;20694;-83
2022/07/14 08:32:13;;;;;;;1.55;0.93;;;;;;;;;;5039025;28;20202;-86
2022/07/14 08:34:49;;;;;;;1.08;0.98;;;;;;;;;;5025871;28;20206;-82
2022/07/14 08:37:22;;;;;;;0.82;0.82;;;;;;;;;;5021586;28;20221;-81
2022/07/14 08:40:10;;;;;;;0.93;0.93;;;;;;;;;;5044175;28;20210;-82
2022/07/14 08:42:38;;;;;;;1.35;0.90;;;;;;;;;;5046961;28;20213;-84
2022/07/14 08:45:09;;;;;;;0.85;0.85;;;;;;;;;;5050702;28;20245;-87
2022/07/14 08:47:37;;;;;;;0.90;0.90;;;;;;;;;;5043347;28;20271;-84
2022/07/14 08:50:07;;;;;;;1.17;0.90;;;;;;;;;;5045877;28;20205;-82
2022/07/14 08:52:36;;;;;;;0.90;0.90;;;;;;;;;;5052426;28;20213;-81
2022/07/14 08:55:06;;;;;;;1.10;1.00;;;;;;;;;;5049871;28;20286;-79
2022/07/14 08:57:33;;;;;;;2.80;0.93;;;;;;;;;;5048921;28;20210;-83
2022/07/14 09:00:00;;;;;;;1.08;1.00;;;;;;;;;;5041239;28;20233;-82
2022/07/14 09:02:28;;;;;;;1.85;0.90;;;;;;;;;;5039547;28;20307;-83
2022/07/14 09:04:56;;;;;;;2.15;1.00;;;;;;;;;;5042654;28;20305;-81
2022/07/14 09:07:31;;;;;;;1.10;1.10;;;;;;;;;;5027159;28;20238;-84
2022/07/14 09:10:10;;;;;;;2.13;1.17;;;;;;;;;;5024024;28;20214;-81
2022/07/14 09:12:38;;;;;;;0.80;0.80;;;;;;;;;;5045865;28;20299;-82
2022/07/14 09:18:12;;;;;;;2.80;0.90;;;;;;;;;;5043740;28;20227;-83
2022/07/14 09:20:39;;;;;;;4.53;1.65;;;;;;;;;;5044413;28;20254;-82
2022/07/14 09:23:07;;;;;;;1.50;1.05;;;;;;;;;;5039710;28;20210;-80
2022/07/14 09:25:38;;;;;;;2.75;0.93;;;;;;;;;;5043150;28;20271;-81
2022/07/14 09:28:07;;;;;;;2.38;1.20;;;;;;;;;;5036246;28;20230;-86
2022/07/14 09:30:34;;;;;;;1.42;1.20;;;;;;;;;;5031641;28;20215;-83
2022/07/14 09:33:03;;;;;;;2.95;1.15;;;;;;;;;;5028696;28;20214;-83
2022/07/14 09:35:38;;;;;;;0.93;0.93;;;;;;;;;;5031616;28;20295;-84
2022/07/14 09:38:15;;;;;;;1.00;1.00;;;;;;;;;;5044806;28;20206;-83
2022/07/14 09:40:45;;;;;;;1.17;1.08;;;;;;;;;;5018322;28;20304;-82
2022/07/14 09:43:13;;;;;;;1.70;1.20;;;;;;;;;;5038916;28;20637;-81
2022/07/14 09:45:54;;;;;;;1.50;1.00;;;;;;;;;;5046490;28;20230;-83
2022/07/14 09:48:21;;;;;;;0.98;0.98;;;;;;;;;;5050457;28;20205;-79
2022/07/14 09:50:48;;;;;;;1.10;1.00;;;;;;;;;;5041829;28;20276;-83
2022/07/14 09:53:26;;;;;;;0.95;0.85;;;;;;;;;;5021675;28;20219;-84
2022/07/14 09:56:00;;;;;;;2.30;1.10;;;;;;;;;;5035761;28;20226;-78
2022/07/14 09:58:31;;;;;;;1.02;0.90;;;;;;;;;;5041120;28;20422;-82
2022/07/14 10:01:10;;;;;;;1.08;0.90;;;;;;;;;;5041608;28;20313;-85
2022/07/14 10:03:40;;;;;;;1.48;0.90;;;;;;;;;;5045902;28;20214;-86
2022/07/14 10:06:11;;;;;;;2.45;1.08;;;;;;;;;;5033285;28;20230;-83
2022/07/14 10:09:23;;;;;;;0.98;0.90;;;;;;;;;;5038749;28;20592;-82
2022/07/14 10:11:55;;;;;;;1.48;0.90;;;;;;;;;;5028526;28;20207;-82
2022/07/14 10:14:29;;;;;;;1.77;0.93;;;;;;;;;;5046168;28;20206;-79
2022/07/14 10:16:58;;;;;;;0.85;0.85;;;;;;;;;;5044599;28;20722;-82
2022/07/14 10:19:26;;;;;;;1.00;1.00;;;;;;;;;;5027547;28;20693;-81
2022/07/14 10:21:55;;;;;;;2.47;1.13;;;;;;;;;;5028535;28;21055;-81
2022/07/14 10:24:56;;;;;;;4.43;1.10;;;;;;;;;;5035080;28;20206;-84
2022/07/14 10:27:25;;;;;;;4.82;1.17;;;;;;;;;;5031138;28;20720;-83
2022/07/14 10:29:57;;;;;;;1.50;1.00;;;;;;;;;;5045258;28;20679;-86
2022/07/14 10:32:27;;;;;;;7.63;1.35;;;;;;;;;;5036333;28;20295;-85
2022/07/14 10:35:11;;;;;;;2.22;1.10;;;;;;;;;;5038089;28;20695;-85
2022/07/14 10:37:57;;;;;;;3.22;1.02;;;;;;;;;;5018938;28;20762;-86
2022/07/14 10:40:27;;;;;;;3.42;1.15;;;;;;;;;;5035294;28;20216;-84
2022/07/14 10:43:03;;;;;;;1.13;1.10;;;;;;;;;;5021184;28;20202;-84
2022/07/14 10:45:48;;;;;;;1.40;1.30;;;;;;;;;;5022489;28;20647;-85
2022/07/14 10:48:37;;;;;;;2.92;1.38;;;;;;;;;;5036163;28;20205;-84
2022/07/14 10:51:17;;;;;;;1.20;1.10;;;;;;;;;;5017633;28;20207;-85
2022/07/14 10:54:03;;;;;;;2.25;1.20;;;;;;;;;;5028214;28;20225;-86
2022/07/14 10:56:50;;;;;;;2.25;1.33;;;;;;;;;;5017009;28;20580;-83
2022/07/14 10:59:27;;;;;;;1.30;1.20;;;;;;;;;;5033382;28;20252;-85
2022/07/14 11:02:13;;;;;;;2.10;1.10;;;;;;;;;;5036276;28;20249;-82
2022/07/14 11:05:00;;;;;;;1.15;1.13;;;;;;;;;;5037338;28;20228;-85
2022/07/14 11:07:42;;;;;;;1.23;1.13;;;;;;;;;;5019012;28;20535;-80
2022/07/14 11:10:14;;;;;;;1.10;1.10;;;;;;;;;;5038611;28;20202;-85
2022/07/14 11:13:00;;;;;;;5.45;1.48;;;;;;;;;;5042688;28;20241;-80
2022/07/14 11:15:56;;;;;;;2.67;1.00;;;;;;;;;;5019867;28;20230;-84
2022/07/14 11:18:34;;;;;;;1.30;1.20;;;;;;;;;;5048005;28;20624;-81
2022/07/14 11:21:08;;;;;;;2.00;0.90;;;;;;;;;;5040308;28;20711;-84
2022/07/14 11:23:39;;;;;;;1.20;0.98;;;;;;;;;;5045107;28;20209;-85
2022/07/14 11:26:07;;;;;;;1.08;1.08;;;;;;;;;;5031778;28;20222;-83
2022/07/14 11:28:46;;;;;;;3.13;0.90;;;;;;;;;;5023928;28;20247;-82
2022/07/14 11:31:23;;;;;;;2.75;1.10;;;;;;;;;;5029883;28;20702;-84
2022/07/14 11:36:38;;;;;;;2.45;1.00;;;;;;;;;;5045485;28;20226;-84
2022/07/14 11:39:18;;;;;;;1.50;1.15;;;;;;;;;;5042686;28;20198;-80
2022/07/14 11:41:47;;;;;;;2.38;1.20;;;;;;;;;;5042754;28;20230;-82
2022/07/14 11:44:30;;;;;;;1.80;1.10;;;;;;;;;;5034470;28;20260;-86
2022/07/14 11:47:00;;;;;;;3.03;1.05;;;;;;;;;;5049850;28;20200;-83
2022/07/14 11:49:34;;;;;;;2.15;1.17;;;;;;;;;;5022107;28;20245;-81
2022/07/14 11:52:04;;;;;;;2.75;1.25;;;;;;;;;;5039601;28;20206;-82
2022/07/14 11:58:22;;;;;;;1.25;1.05;;;;;;;;;;4996521;28;20249;-83
2022/07/14 12:01:22;;;;;;;1.30;1.20;;;;;;;;;;4999594;28;20239;-85
2022/07/14 12:07:23;;;;;;;2.58;1.02;;;;;;;;;;5029208;28;20487;-82
2022/07/14 12:09:55;;;;;;;1.17;1.10;;;;;;;;;;5033555;28;20214;-84
2022/07/14 12:12:39;;;;;;;1.30;1.20;;;;;;;;;;5021990;28;20271;-83
2022/07/14 12:15:06;;;;;;;2.35;1.20;;;;;;;;;;5039139;28;20242;-83
2022/07/14 12:17:46;;;;;;;1.00;1.00;;;;;;;;;;5037262;28;20567;-85
2022/07/14 12:20:13;;;;;;;2.05;1.40;;;;;;;;;;5041640;28;20218;-84
2022/07/14 12:22:44;;;;;;;2.28;1.10;;;;;;;;;;5024881;28;20717;-81
2022/07/14 12:25:44;;;;;;;1.80;1.17;;;;;;;;;;5039773;28;20276;-87
2022/07/14 12:28:12;;;;;;;2.20;1.40;;;;;;;;;;4983784;28;20253;-81
2022/07/14 12:30:43;;;;;;;4.07;3.17;;;;;;;;;;5038501;28;20202;-83
2022/07/14 12:33:11;;;;;;;1.50;1.40;;;;;;;;;;5035666;28;20826;-84
2022/07/14 12:35:43;;;;;;;1.27;1.17;;;;;;;;;;5025579;28;20250;-84
2022/07/14 12:38:15;;;;;;;3.38;1.50;;;;;;;;;;5023436;28;20233;-83
2022/07/14 12:40:58;;;;;;;1.60;1.00;;;;;;;;;;5016960;28;20202;-80
2022/07/14 12:43:41;;;;;;;1.17;1.00;;;;;;;;;;4981018;28;20208;-82
2022/07/14 12:46:18;;;;;;;1.30;1.20;;;;;;;;;;4969375;28;20225;-83
2022/07/14 12:48:54;;;;;;;2.35;1.10;;;;;;;;;;5020968;28;20189;-82
2022/07/14 12:51:36;;;;;;;1.58;1.17;;;;;;;;;;5039255;28;20662;-82
2022/07/14 12:54:12;;;;;;;1.58;1.48;;;;;;;;;;5035551;28;20267;-83
2022/07/14 12:57:03;;;;;;;3.17;1.00;;;;;;;;;;5039957;28;20224;-85
2022/07/14 12:59:33;;;;;;;3.25;1.00;;;;;;;;;;5023670;28;20207;-84
2022/07/14 13:02:19;;;;;;;1.20;1.05;;;;;;;;;;5019086;28;20235;-83
2022/07/14 13:05:02;;;;;;;1.45;1.08;;;;;;;;;;5019400;28;20206;-81
2022/07/14 13:07:33;;;;;;;1.95;1.10;;;;;;;;;;5039155;28;20205;-83
2022/07/14 13:10:05;;;;;;;1.20;1.00;;;;;;;;;;5021317;28;20278;-83
2022/07/14 13:12:35;;;;;;;1.02;1.00;;;;;;;;;;5039548;28;20222;-82
2022/07/14 13:15:07;;;;;;;3.38;1.10;;;;;;;;;;5035432;28;20242;-84
2022/07/14 13:17:54;;;;;;;4.22;0.98;;;;;;;;;;5035076;28;20275;-79
2022/07/14 13:20:42;;;;;;;1.40;1.10;;;;;;;;;;5027324;28;20205;-81
2022/07/14 13:23:40;;;;;;;2.25;1.00;;;;;;;;;;5040090;28;20321;-84
2022/07/14 13:26:22;;;;;;;0.93;0.93;;;;;;;;;;5026105;28;20600;-82
2022/07/14 13:28:53;;;;;;;1.00;1.00;;;;;;;;;;5036497;28;20622;-87
2022/07/14 13:31:29;;;;;;;1.50;1.08;;;;;;;;;;5034975;28;20290;-85
2022/07/14 13:34:02;;;;;;;1.13;1.02;;;;;;;;;;5024329;28;20213;-83
2022/07/14 13:36:31;;;;;;;2.55;1.10;;;;;;;;;;5042615;28;20238;-84
2022/07/14 13:38:59;;;;;;;4.13;1.20;;;;;;;;;;5024195;28;20233;-85
2022/07/14 13:41:55;;;;;;;2.03;1.00;;;;;;;;;;5037878;28;20268;-83
2022/07/14 13:44:56;;;;;;;1.27;1.02;;;;;;;;;;5034051;28;20207;-83
2022/07/14 13:47:23;;;;;;;1.85;1.10;;;;;;;;;;5035956;28;20208;-81
2022/07/14 13:52:39;;;;;;;2.58;1.10;;;;;;;;;;5039861;28;20198;-83
2022/07/14 13:55:16;;;;;;;3.92;1.00;;;;;;;;;;5026564;28;20234;-83
2022/07/14 13:57:46;;;;;;;1.20;0.93;;;;;;;;;;5032330;28;20233;-85
2022/07/14 14:00:27;;;;;;;2.45;1.27;;;;;;;;;;5036609;28;20207;-85
2022/07/14 14:05:52;;;;;;;2.80;1.33;;;;;;;;;;5042129;28;20722;-82
2022/07/14 14:08:32;;;;;;;1.92;1.05;;;;;;;;;;5040144;28;20202;-86
2022/07/14 14:11:00;;;;;;;2.63;1.23;;;;;;;;;;5041113;28;20213;-82
2022/07/14 14:13:33;;;;;;;1.10;1.00;;;;;;;;;;5024092;28;21303;-81
2022/07/14 14:16:02;;;;;;;2.00;1.10;;;;;;;;;;5020259;28;20228;-84
2022/07/14 14:18:30;;;;;;;3.20;1.70;;;;;;;;;;5037561;28;20395;-84
2022/07/14 14:20:58;;;;;;;2.40;1.17;;;;;;;;;;5037974;28;20217;-83
2022/07/14 14:23:29;;;;;;;2.75;1.63;;;;;;;;;;5015295;28;20237;-80
2022/07/14 14:25:57;;;;;;;3.40;1.02;;;;;;;;;;5036393;28;20226;-81
2022/07/14 14:28:24;;;;;;;4.97;1.30;;;;;;;;;;5023373;28;20251;-82
2022/07/14 14:30:52;;;;;;;2.10;1.40;;;;;;;;;;5024522;28;20706;-80
2022/07/14 14:33:21;;;;;;;1.30;1.20;;;;;;;;;;5029152;28;20209;-81
2022/07/14 14:35:54;;;;;;;2.05;1.10;;;;;;;;;;5044898;28;20226;-78
2022/07/14 14:38:22;;;;;;;5.38;1.13;;;;;;;;;;5035779;28;20265;-84
2022/07/14 14:40:49;;;;;;;1.50;1.02;;;;;;;;;;5038753;28;20209;-82
2022/07/14 14:43:18;;;;;;;5.45;1.30;;;;;;;;;;5021884;28;20765;-84
2022/07/14 14:45:46;;;;;;;1.42;1.00;;;;;;;;;;5038380;28;21058;-80
2022/07/14 14:48:33;;;;;;;1.00;1.00;;;;;;;;;;5028277;28;20248;-80
2022/07/14 14:51:00;;;;;;;1.08;1.08;;;;;;;;;;5037631;28;20203;-82
2022/07/14 14:53:35;;;;;;;2.42;1.27;;;;;;;;;;5035585;28;20726;-80
2022/07/14 14:56:03;;;;;;;0.93;0.93;;;;;;;;;;5020727;28;20231;-83
2022/07/14 14:58:30;;;;;;;1.98;1.10;;;;;;;;;;5032152;28;22493;-80
2022/07/14 15:00:58;;;;;;;3.72;1.20;;;;;;;;;;5041425;28;20209;-80
2022/07/14 15:03:25;;;;;;;2.50;1.30;;;;;;;;;;5022957;28;20226;-83
2022/07/14 15:05:53;;;;;;;1.50;1.02;;;;;;;;;;5017819;28;20231;-81
2022/07/14 15:08:28;;;;;;;2.58;1.20;;;;;;;;;;5032046;28;20225;-82
2022/07/14 15:11:01;;;;;;;1.45;1.20;;;;;;;;;;5032068;28;20211;-80
2022/07/14 15:13:29;;;;;;;2.15;1.30;;;;;;;;;;5028189;28;20198;-85
2022/07/14 15:15:57;;;;;;;4.03;1.10;;;;;;;;;;5014944;28;20223;-84
2022/07/14 15:18:24;;;;;;;2.83;1.13;;;;;;;;;;5029211;28;20679;-83
2022/07/14 15:20:52;;;;;;;1.83;1.20;;;;;;;;;;5032874;28;20210;-83
2022/07/14 15:23:19;;;;;;;1.52;1.15;;;;;;;;;;5035494;28;20234;-83
2022/07/14 15:25:47;;;;;;;3.28;1.30;;;;;;;;;;5016759;28;20235;-83
2022/07/14 15:28:14;;;;;;;4.25;1.40;;;;;;;;;;5041142;28;20202;-82
2022/07/14 15:30:46;;;;;;;1.50;1.40;;;;;;;;;;5018480;28;20675;-83
2022/07/14 15:33:15;;;;;;;4.53;1.55;;;;;;;;;;5021675;28;20587;-83
2022/07/14 15:35:43;;;;;;;2.95;1.50;;;;;;;;;;5020675;28;20238;-85
2022/07/14 15:38:10;;;;;;;3.30;1.20;;;;;;;;;;5029534;28;20198;-82